createdAt,value
2023-01-10T00:01:12.529Z,2.45
2023-01-10T00:08:44.407Z,2.70
2023-01-10T00:16:16.233Z,3.55
2023-01-10T00:23:49.027Z,2.53
2023-01-10T00:31:20.874Z,1.98
2023-01-10T00:38:52.784Z,2.53
2023-01-10T00:46:24.641Z,1.13
2023-01-10T00:53:56.590Z,3.13
2023-01-10T01:01:28.606Z,1.60
2023-01-10T01:09:00.388Z,2.30
2023-01-10T01:16:32.191Z,1.98
2023-01-10T01:24:04.051Z,0.73
2023-01-10T01:31:35.795Z,2.65
2023-01-10T01:39:07.643Z,2.42
2023-01-10T01:46:39.568Z,1.20
2023-01-10T01:54:12.064Z,1.60
2023-01-10T02:01:45.304Z,3.67
2023-01-10T02:09:29.682Z,2.70
2023-01-10T02:17:01.491Z,2.55
2023-01-10T02:25:04.878Z,1.85
2023-01-10T02:33:04.559Z,2.05
2023-01-10T02:41:21.473Z,0.43
2023-01-10T02:48:54.150Z,0.93
2023-01-10T02:57:10.520Z,2.67
2023-01-10T03:04:55.739Z,2.08
2023-01-10T03:12:34.821Z,2.38
2023-01-10T03:20:07.128Z,0.65
2023-01-10T03:28:03.973Z,3.78
2023-01-10T03:36:00.931Z,1.27
2023-01-10T03:44:01.704Z,1.40
2023-01-10T03:51:33.410Z,3.53
2023-01-10T03:59:05.169Z,1.17
2023-01-10T04:06:37.004Z,0.95
2023-01-10T04:14:08.746Z,1.33
2023-01-10T04:21:40.537Z,0.65
2023-01-10T04:29:12.321Z,0.68
2023-01-10T04:36:44.133Z,2.85
2023-01-10T04:44:15.939Z,2.83
2023-01-10T04:51:47.744Z,1.27
2023-01-10T04:59:20.039Z,0.47
2023-01-10T05:06:51.805Z,0.32
2023-01-10T05:14:23.520Z,1.55
2023-01-10T05:21:55.292Z,1.17
2023-01-10T05:29:27.047Z,6.15
2023-01-10T05:36:58.929Z,1.67
2023-01-10T05:44:30.744Z,1.30
2023-01-10T05:52:02.535Z,2.65
2023-01-10T05:59:34.274Z,1.25
2023-01-10T06:07:06.083Z,2.75
2023-01-10T06:14:37.828Z,2.20
2023-01-10T06:22:09.606Z,5.68
2023-01-10T06:29:41.363Z,2.72
2023-01-10T06:37:13.152Z,1.25
2023-01-10T06:44:44.897Z,0.60
2023-01-10T06:52:16.642Z,0.70
2023-01-10T06:59:48.568Z,2.42
2023-01-10T07:07:20.327Z,3.22
2023-01-10T07:14:51.872Z,2.72
2023-01-10T07:22:23.647Z,1.50
2023-01-10T07:29:55.420Z,2.25
2023-01-10T07:37:27.221Z,3.90
2023-01-10T07:44:59.049Z,1.90
2023-01-10T07:52:30.763Z,2.50
2023-01-10T08:00:02.818Z,4.45
2023-01-10T08:07:36.846Z,5.13
2023-01-10T08:15:09.445Z,2.40
2023-01-10T08:22:41.225Z,2.33
2023-01-10T08:30:13.621Z,3.05
2023-01-10T08:37:45.401Z,4.10
2023-01-10T08:45:17.174Z,4.93
2023-01-10T08:52:49.049Z,2.22
2023-01-10T09:00:21.637Z,3.20
2023-01-10T09:07:54.160Z,2.80
2023-01-10T09:15:29.586Z,5.72
2023-01-10T09:23:23.149Z,3.17
2023-01-10T09:30:54.973Z,2.08
2023-01-10T09:38:26.795Z,1.48
2023-01-10T09:46:08.416Z,7.03
2023-01-10T09:53:41.502Z,6.15
2023-01-10T10:01:17.168Z,9.68
2023-01-10T10:08:48.782Z,7.50
2023-01-10T10:16:56.167Z,13.85
2023-01-10T10:24:47.373Z,5.82
2023-01-10T10:32:35.789Z,10.00
2023-01-10T10:40:13.535Z,4.65
2023-01-10T10:47:53.325Z,8.57
2023-01-10T10:55:31.450Z,6.47
2023-01-10T11:03:05.808Z,2.17
2023-01-10T11:10:38.448Z,7.60
2023-01-10T11:18:15.004Z,7.63
2023-01-10T11:25:46.876Z,6.70
2023-01-10T11:34:42.414Z,5.82
2023-01-10T11:42:30.307Z,3.53
2023-01-10T11:50:03.830Z,6.15
2023-01-10T11:57:35.585Z,1.98
2023-01-10T12:05:10.444Z,1.45
2023-01-10T12:12:52.034Z,11.18
2023-01-10T12:20:24.013Z,4.55
2023-01-10T12:27:56.372Z,5.38
2023-01-10T12:36:07.329Z,5.68
2023-01-10T12:43:59.397Z,6.40
2023-01-10T12:51:31.210Z,3.97
2023-01-10T12:59:06.566Z,7.53
2023-01-10T13:06:40.225Z,6.47
2023-01-10T13:14:14.606Z,6.85
2023-01-10T13:21:47.196Z,20.75
2023-01-10T13:29:22.614Z,13.13
2023-01-10T13:37:10.657Z,14.18
2023-01-10T13:45:00.586Z,10.75
2023-01-10T13:52:33.042Z,8.50
2023-01-10T14:00:24.426Z,17.58
2023-01-10T14:07:57.859Z,14.57
2023-01-10T14:15:38.624Z,13.77
2023-01-10T14:23:16.273Z,15.98
2023-01-10T14:31:01.960Z,14.07
2023-01-10T14:38:35.431Z,10.68
2023-01-10T14:46:17.480Z,10.77
2023-01-10T14:54:24.399Z,12.15
2023-01-10T15:02:29.534Z,12.77
2023-01-10T15:10:03.953Z,14.02
2023-01-10T15:17:35.968Z,4.85
2023-01-10T15:25:28.238Z,6.63
2023-01-10T15:33:15.064Z,5.75
2023-01-10T15:40:46.860Z,8.10
2023-01-10T15:48:31.639Z,7.63
2023-01-10T15:56:12.446Z,9.68
2023-01-10T16:03:47.506Z,5.63
2023-01-10T16:11:54.037Z,10.30
2023-01-10T16:19:25.828Z,10.38
2023-01-10T16:27:00.393Z,7.93
2023-01-10T16:34:34.171Z,7.28
2023-01-10T16:42:24.273Z,4.90
2023-01-10T16:49:56.081Z,6.80
2023-01-10T16:57:27.885Z,5.57
2023-01-10T17:04:59.618Z,7.60
2023-01-10T17:12:34.763Z,6.72
2023-01-10T17:20:07.303Z,5.05
2023-01-10T17:27:39.217Z,5.45
2023-01-10T17:35:11.042Z,5.03
2023-01-10T17:42:42.819Z,8.13
2023-01-10T17:50:14.923Z,5.80
2023-01-10T17:57:46.660Z,4.20
2023-01-10T18:05:18.392Z,8.88
2023-01-10T18:12:50.148Z,4.55
2023-01-10T18:20:21.894Z,11.77
2023-01-10T18:27:55.279Z,13.35
2023-01-10T18:35:28.025Z,7.78
2023-01-10T18:42:59.734Z,8.18
2023-01-10T18:50:31.454Z,9.48
2023-01-10T18:58:03.237Z,10.32
2023-01-10T19:05:35.017Z,6.70
2023-01-10T19:13:07.293Z,8.05
2023-01-10T19:20:39.106Z,8.38
2023-01-10T19:28:10.892Z,7.65
2023-01-10T19:35:43.998Z,7.30
2023-01-10T19:43:16.103Z,7.72
2023-01-10T19:50:48.585Z,12.90
2023-01-10T19:58:20.351Z,10.50
2023-01-10T20:05:52.292Z,15.82
2023-01-10T20:13:24.170Z,12.90
2023-01-10T20:20:56.192Z,14.90
2023-01-10T20:28:28.920Z,16.85
2023-01-10T20:36:05.768Z,12.43
2023-01-10T20:43:37.479Z,14.40
2023-01-10T20:51:12.246Z,12.80
2023-01-10T20:58:44.107Z,11.85
2023-01-10T21:06:16.968Z,10.63
2023-01-10T21:13:48.766Z,11.52
2023-01-10T21:21:22.514Z,13.50
2023-01-10T21:28:54.321Z,9.93
2023-01-10T21:36:26.073Z,9.38
2023-01-10T21:43:57.836Z,11.93
2023-01-10T21:51:29.626Z,10.20
2023-01-10T21:59:01.433Z,8.70
2023-01-10T22:06:33.316Z,7.85
2023-01-10T22:14:05.110Z,9.95
2023-01-10T22:21:36.933Z,8.20
2023-01-10T22:29:08.768Z,11.10
2023-01-10T22:36:40.614Z,10.43
2023-01-10T22:44:20.285Z,10.75
2023-01-10T22:51:52.038Z,11.52
2023-01-10T22:59:23.778Z,9.57
2023-01-10T23:06:56.793Z,7.97
2023-01-10T23:14:28.626Z,5.35
2023-01-10T23:22:00.400Z,9.65
2023-01-10T23:29:32.154Z,6.95
2023-01-10T23:37:04.209Z,6.57
2023-01-10T23:44:36.017Z,5.93
2023-01-10T23:52:07.751Z,5.30
2023-01-10T23:59:39.655Z,7.82
